Time;durP1;ratioP1;P1;durP2;ratioP2;P2;SDS_P1;SDS_P2;PMS_P1;PMS_P2;Temp;Humidity;BMP_temperature;BMP_pressure;BME280_temperature;BME280_humidity;BME280_pressure;Samples;Min_cycle;Max_cycle;Signal;HPM_P1;HPM_P2
2022/07/09 00:01:24;;;;;;;;;3.67;3.67;;;;;21.62;100.00;102392.84;4998272;28;48061;-77
2022/07/09 00:03:51;;;;;;;;;2.00;2.00;;;;;21.67;100.00;102401.31;5010513;28;45802;-76
2022/07/09 00:06:17;;;;;;;;;5.67;4.67;;;;;21.66;100.00;102399.63;5009187;28;45765;-77
2022/07/09 00:08:43;;;;;;;;;5.00;4.00;;;;;21.63;100.00;102397.34;5020553;28;45751;-80
2022/07/09 00:11:08;;;;;;;;;4.00;4.00;;;;;21.65;100.00;102397.94;5025067;28;45389;-78
2022/07/09 00:13:34;;;;;;;;;2.00;2.00;;;;;21.51;100.00;102374.13;5012632;28;45370;-80
2022/07/09 00:15:59;;;;;;;;;6.00;4.33;;;;;21.56;100.00;102377.06;5025165;28;45746;-77
2022/07/09 00:18:25;;;;;;;;;5.00;5.00;;;;;21.62;100.00;102397.59;5019799;28;45396;-77
2022/07/09 00:20:50;;;;;;;;;4.33;4.33;;;;;21.61;100.00;102402.28;5023505;28;45396;-78
2022/07/09 00:23:17;;;;;;;;;6.00;6.00;;;;;21.59;100.00;102393.31;5017437;28;45812;-79
2022/07/09 00:25:42;;;;;;;;;4.67;4.67;;;;;21.57;100.00;102392.72;5025410;28;45419;-81
2022/07/09 00:28:08;;;;;;;;;5.33;5.33;;;;;21.54;100.00;102395.97;5027336;28;45417;-81
2022/07/09 00:30:33;;;;;;;;;4.00;4.00;;;;;21.55;100.00;102392.09;5018003;28;48420;-80
2022/07/09 00:32:59;;;;;;;;;5.00;5.00;;;;;21.44;100.00;102374.22;5009382;28;45596;-80
2022/07/09 00:35:24;;;;;;;;;3.33;3.33;;;;;21.45;100.00;102375.06;4997050;28;45490;-81
2022/07/09 00:37:50;;;;;;;;;5.00;5.00;;;;;21.27;100.00;102345.34;4997422;28;45549;-80
2022/07/09 00:40:15;;;;;;;;;4.00;4.00;;;;;21.51;100.00;102391.75;5024999;28;45945;-79
2022/07/09 00:42:41;;;;;;;;;4.33;4.33;;;;;21.52;100.00;102387.84;5017118;28;45473;-79
2022/07/09 00:45:07;;;;;;;;;6.00;5.00;;;;;21.50;100.00;102389.19;5008673;28;45973;-77
2022/07/09 00:47:32;;;;;;;;;4.67;4.67;;;;;21.47;100.00;102381.28;5006529;28;45789;-77
2022/07/09 00:49:58;;;;;;;;;4.00;4.00;;;;;21.45;100.00;102384.31;5018937;28;45479;-77
2022/07/09 00:52:23;;;;;;;;;4.67;4.67;;;;;21.39;100.00;102388.03;5012990;28;45897;-79
2022/07/09 00:54:50;;;;;;;;;4.00;4.00;;;;;21.46;100.00;102390.72;5017703;28;45704;-76
2022/07/09 00:57:16;;;;;;;;;3.00;3.00;;;;;21.42;100.00;102386.72;5014742;28;45417;-77
2022/07/09 00:59:42;;;;;;;;;4.00;3.67;;;;;21.37;100.00;102379.06;5012588;28;47571;-76
2022/07/09 01:02:09;;;;;;;;;3.33;3.33;;;;;21.44;100.00;102390.97;5012340;28;45545;-76
2022/07/09 01:04:35;;;;;;;;;4.00;4.00;;;;;21.43;100.00;102383.69;4999009;28;45680;-76
2022/07/09 01:07:01;;;;;;;;;7.33;6.33;;;;;21.42;100.00;102382.00;5001712;28;46062;-76
2022/07/09 01:09:27;;;;;;;;;5.00;4.33;;;;;21.39;100.00;102376.03;5013977;28;45483;-76
2022/07/09 01:11:53;;;;;;;;;3.00;3.00;;;;;21.37;100.00;102372.66;5014600;28;45795;-77
2022/07/09 01:14:19;;;;;;;;;4.33;4.33;;;;;21.28;100.00;102359.03;5019287;28;45836;-78
2022/07/09 01:16:44;;;;;;;;;4.33;4.33;;;;;21.23;100.00;102356.16;5012838;28;45750;-76
2022/07/09 01:19:10;;;;;;;;;3.00;3.00;;;;;21.22;100.00;102354.44;5019252;28;45897;-76
2022/07/09 01:21:35;;;;;;;;;4.33;4.00;;;;;21.17;100.00;102357.13;4996094;28;45735;-78
2022/07/09 01:24:01;;;;;;;;;7.67;6.00;;;;;21.24;100.00;102365.34;5022708;28;45952;-78
2022/07/09 01:26:27;;;;;;;;;5.00;5.00;;;;;21.13;100.00;102351.16;5023299;28;45604;-77
2022/07/09 01:28:53;;;;;;;;;5.33;5.33;;;;;21.15;100.00;102353.69;4995342;28;47166;-76
2022/07/09 01:31:18;;;;;;;;;3.00;3.00;;;;;21.10;100.00;102354.41;5011551;28;45320;-78
2022/07/09 01:33:44;;;;;;;;;5.33;5.00;;;;;21.14;100.00;102361.22;5018848;28;45701;-76
2022/07/09 01:36:10;;;;;;;;;9.00;7.33;;;;;21.12;100.00;102365.34;5019758;28;45611;-76
2022/07/09 01:38:35;;;;;;;;;9.67;7.00;;;;;21.09;100.00;102355.53;5015829;28;46407;-78
2022/07/09 01:41:01;;;;;;;;;8.33;7.33;;;;;21.08;100.00;102353.81;5020122;28;45512;-76
2022/07/09 01:43:27;;;;;;;;;6.00;6.00;;;;;21.03;100.00;102353.69;5018211;28;45443;-77
2022/07/09 01:45:53;;;;;;;;;5.33;5.33;;;;;21.05;100.00;102361.81;5013868;28;45785;-79
2022/07/09 01:48:18;;;;;;;;;7.00;6.67;;;;;;;;5012675;28;45680;-79
2022/07/09 01:50:43;;;;;;;;;5.33;5.33;;;;;20.92;100.00;102343.38;4997030;28;45526;-76
2022/07/09 01:53:09;;;;;;;;;4.00;3.33;;;;;20.98;100.00;102350.78;5008707;28;45669;-77
2022/07/09 01:55:35;;;;;;;;;7.33;6.33;;;;;20.96;100.00;102353.81;5006147;28;46800;-77
2022/07/09 01:58:01;;;;;;;;;5.33;5.33;;;;;20.95;100.00;102345.66;5011978;28;45931;-77
2022/07/09 02:00:30;;;;;;;;;6.00;5.33;;;;;20.92;100.00;102343.38;5026228;28;45833;-80
2022/07/09 02:02:56;;;;;;;;;7.00;6.00;;;;;20.89;100.00;102333.53;5017624;28;45802;-76
2022/07/09 02:05:22;;;;;;;;;9.33;6.33;;;;;20.88;100.00;102331.81;5009907;28;46349;-77
2022/07/09 02:07:48;;;;;;;;;6.67;6.67;;;;;20.87;100.00;102330.16;5016815;28;45834;-76
2022/07/09 02:10:14;;;;;;;;;7.67;6.67;;;;;20.84;100.00;102329.75;5019256;28;45970;-76
2022/07/09 02:12:40;;;;;;;;;4.33;4.00;;;;;20.76;100.00;102317.00;5021664;28;45527;-77
2022/07/09 02:15:06;;;;;;;;;5.00;5.00;;;;;20.80;100.00;102334.97;5016482;28;45574;-76
2022/07/09 02:17:32;;;;;;;;;4.00;4.00;;;;;20.78;100.00;102331.59;5010818;28;47000;-76
2022/07/09 02:19:57;;;;;;;;;8.00;8.00;;;;;20.73;100.00;102326.69;5013607;28;45442;-76
2022/07/09 02:22:23;;;;;;;;;11.00;8.33;;;;;20.70;100.00;102329.13;5010742;28;45375;-75
2022/07/09 02:24:48;;;;;;;;;8.33;5.00;;;;;20.61;100.00;102323.88;5022122;28;45532;-76
2022/07/09 02:27:14;;;;;;;;;7.33;5.33;;;;;20.65;100.00;102324.22;5019078;28;45675;-76
2022/07/09 02:29:39;;;;;;;;;8.00;6.67;;;;;20.58;100.00;102320.69;5007578;28;45699;-77
2022/07/09 02:32:06;;;;;;;;;8.33;7.00;;;;;20.61;100.00;102325.78;5012143;28;45805;-76
2022/07/09 02:34:31;;;;;;;;;7.33;6.00;;;;;20.56;100.00;102328.44;5024793;28;45945;-76
2022/07/09 02:36:57;;;;;;;;;7.33;6.33;;;;;20.48;100.00;102321.28;5007738;28;46752;-77
2022/07/09 02:39:22;;;;;;;;;6.33;4.00;;;;;20.40;100.00;102313.25;5012840;28;45813;-77
2022/07/09 02:41:48;;;;;;;;;6.00;6.00;;;;;20.44;100.00;102325.63;5029772;28;45829;-76
2022/07/09 02:44:13;;;;;;;;;5.33;5.33;;;;;20.31;100.00;102318.28;5019254;28;45366;-74
2022/07/09 02:46:38;;;;;;;;;6.00;5.67;;;;;20.33;100.00;102318.91;5025847;28;46704;-74
2022/07/09 02:49:04;;;;;;;;;12.00;10.67;;;;;20.32;100.00;102333.09;5021422;28;45948;-76
2022/07/09 02:51:29;;;;;;;;;6.67;6.67;;;;;20.32;100.00;102341.44;4997679;28;45642;-77
2022/07/09 02:53:55;;;;;;;;;11.67;10.33;;;;;20.26;100.00;102332.09;5027516;28;45599;-78
2022/07/09 02:56:20;;;;;;;;;9.00;8.00;;;;;20.20;100.00;102328.31;5018443;28;46414;-77
2022/07/09 02:58:45;;;;;;;;;12.67;12.67;;;;;20.21;100.00;102334.72;5023039;28;45359;-76
2022/07/09 03:01:11;;;;;;;;;9.33;9.33;;;;;20.15;100.00;102333.75;5024301;28;45340;-75
2022/07/09 03:03:36;;;;;;;;;6.67;6.67;;;;;20.13;100.00;102335.06;5020657;28;45618;-77
2022/07/09 03:06:07;;;;;;;;;8.00;6.67;;;;;19.93;100.00;102317.50;5005447;28;47246;-77
2022/07/09 03:08:33;;;;;;;;;8.67;6.33;;;;;20.04;100.00;102338.13;5016965;28;45520;-76
2022/07/09 03:10:58;;;;;;;;;8.67;7.00;;;;;19.98;100.00;102338.25;5014968;28;45533;-78
2022/07/09 03:13:24;;;;;;;;;7.33;6.67;;;;;19.97;100.00;102339.31;5015826;28;46569;-78
2022/07/09 03:15:50;;;;;;;;;8.00;8.00;;;;;19.86;100.00;102329.81;5010898;28;46399;-76
2022/07/09 03:18:15;;;;;;;;;9.33;8.33;;;;;19.92;100.00;102357.59;5010746;28;45689;-75
2022/07/09 03:20:41;;;;;;;;;7.67;7.67;;;;;19.78;100.00;102332.91;4996866;28;45795;-78
2022/07/09 03:23:06;;;;;;;;;9.33;8.33;;;;;19.85;100.00;102351.25;5014635;28;45300;-76
2022/07/09 03:25:32;;;;;;;;;7.00;7.00;;;;;19.75;100.00;102334.19;5017187;28;46315;-74
2022/07/09 03:27:58;;;;;;;;;10.33;9.00;;;;;19.78;100.00;102346.84;5009625;28;45367;-76
2022/07/09 03:30:23;;;;;;;;;8.67;8.00;;;;;19.75;100.00;102345.31;5024392;28;45834;-75
2022/07/09 03:32:49;;;;;;;;;8.33;7.00;;;;;19.65;100.00;102340.28;4994103;28;46773;-76
2022/07/09 03:35:15;;;;;;;;;12.33;8.67;;;;;19.72;100.00;102348.56;5011796;28;45864;-76
2022/07/09 03:37:41;;;;;;;;;5.00;5.00;;;;;19.67;100.00;102349.28;5023288;28;46057;-76
2022/07/09 03:40:07;;;;;;;;;8.33;8.33;;;;;19.67;100.00;102353.97;5017652;28;45633;-77
2022/07/09 03:42:32;;;;;;;;;7.00;7.00;;;;;19.64;100.00;102349.72;5022761;28;45833;-76
2022/07/09 03:44:57;;;;;;;;;7.67;6.33;;;;;19.63;100.00;102359.16;5032496;28;45486;-76
2022/07/09 03:47:23;;;;;;;;;7.33;7.33;;;;;19.63;100.00;102361.09;5011748;28;45681;-75
2022/07/09 03:49:49;;;;;;;;;7.67;7.67;;;;;19.60;100.00;102359.63;5026340;28;45914;-76
2022/07/09 03:52:14;;;;;;;;;8.33;7.67;;;;;19.57;100.00;102357.31;5031273;28;45614;-75
2022/07/09 03:54:39;;;;;;;;;11.33;9.33;;;;;19.60;100.00;102367.97;5020641;28;47037;-75
2022/07/09 03:57:05;;;;;;;;;9.67;8.33;;;;;19.57;100.00;102366.50;5033340;28;45825;-80
2022/07/09 03:59:31;;;;;;;;;10.67;8.33;;;;;19.58;100.00;102370.97;5018098;28;45387;-75
2022/07/09 04:01:56;;;;;;;;;7.67;7.67;;;;;19.54;100.00;102360.53;5015577;28;46375;-77
2022/07/09 04:04:22;;;;;;;;;10.67;8.33;;;;;19.63;100.00;102375.00;5017363;28;47209;-76
2022/07/09 04:06:47;;;;;;;;;10.00;9.00;;;;;19.66;100.00;102374.56;5020859;28;45344;-76
2022/07/09 04:09:12;;;;;;;;;8.33;6.00;;;;;19.70;100.00;102381.34;5034589;28;46255;-76
2022/07/09 04:11:38;;;;;;;;;11.33;9.67;;;;;19.73;100.00;102373.41;5023393;28;45810;-76
2022/07/09 04:14:03;;;;;;;;;8.67;8.67;;;;;19.93;100.00;102378.75;5020862;28;45535;-76
2022/07/09 04:16:29;;;;;;;;;8.00;7.33;;;;;20.08;100.00;102381.16;5027885;28;45365;-76
2022/07/09 04:18:55;;;;;;;;;13.33;7.67;;;;;20.22;100.00;102367.91;5027552;28;45741;-76
2022/07/09 04:21:21;;;;;;;;;10.33;8.33;;;;;20.44;100.00;102375.78;5034891;28;45463;-77
2022/07/09 04:23:48;;;;;;;;;12.00;8.67;;;;;20.57;100.00;102375.59;5003526;28;45932;-76
2022/07/09 04:26:14;;;;;;;;;8.33;8.33;;;;;20.64;100.00;102368.00;5033982;28;45854;-75
2022/07/09 04:28:40;;;;;;;;;9.67;9.67;;;;;20.63;100.00;102369.06;5021489;28;45932;-77
2022/07/09 04:31:05;;;;;;;;;9.33;9.33;;;;;20.54;100.00;102353.78;5019384;28;45316;-75
2022/07/09 04:33:31;;;;;;;;;8.67;8.67;;;;;20.67;100.00;102368.63;5014647;28;46434;-76
2022/07/09 04:35:56;;;;;;;;;11.33;9.33;;;;;20.75;100.00;102371.09;5017171;28;45408;-75
2022/07/09 04:38:22;;;;;;;;;12.00;12.00;;;;;20.93;100.00;102368.22;5016195;28;45908;-77
2022/07/09 04:40:47;;;;;;;;;11.67;8.67;;;;;;;;5020459;28;45813;-76
2022/07/09 04:43:13;;;;;;;;;10.33;8.67;;;;;21.10;100.00;102354.41;5008980;28;48107;-77
2022/07/09 04:45:38;;;;;;;;;11.33;11.33;;;;;21.17;100.00;102360.75;5010477;28;46028;-76
2022/07/09 04:48:04;;;;;;;;;10.33;9.00;;;;;21.27;100.00;102362.09;5015877;28;45958;-78
2022/07/09 04:50:30;;;;;;;;;9.67;9.00;;;;;21.41;100.00;102357.13;5014629;28;46110;-81
2022/07/09 04:52:55;;;;;;;;;9.33;7.67;;;;;21.78;100.00;102362.47;5024843;28;45470;-80
2022/07/09 04:55:22;;;;;;;;;8.00;8.00;;;;;22.24;100.00;102365.41;5021571;28;45451;-81
2022/07/09 04:57:48;;;;;;;;;9.33;9.00;;;;;22.44;100.00;102362.19;5022524;28;45481;-81
2022/07/09 05:00:15;;;;;;;;;8.00;8.00;;;;;22.45;100.00;102353.56;5023436;28;45855;-80
2022/07/09 05:02:42;;;;;;;;;11.33;10.33;;;;;22.55;100.00;102358.50;5028598;28;45498;-81
2022/07/09 05:05:08;;;;;;;;;10.67;9.33;;;;;22.66;100.00;102363.16;5023165;28;45493;-82
2022/07/09 05:07:34;;;;;;;;;9.00;8.33;;;;;22.57;100.00;102353.50;5008509;28;45498;-80
2022/07/09 05:10:02;;;;;;;;;8.67;8.67;;;;;22.58;100.00;102366.38;5017021;28;45518;-81
2022/07/09 05:12:28;;;;;;;;;10.67;8.67;;;;;22.63;100.00;102365.63;5032154;28;45779;-83
2022/07/09 05:14:55;;;;;;;;;7.00;7.00;;;;;23.06;100.00;102358.56;5021547;28;47646;-83
2022/07/09 05:17:21;;;;;;;;;10.00;7.67;;;;;23.89;100.00;102360.72;5032163;28;46248;-79
2022/07/09 05:19:46;;;;;;;;;8.33;8.33;;;;;24.75;100.00;102351.66;5021043;28;45778;-82
2022/07/09 05:22:11;;;;;;;;;12.33;10.33;;;;;25.59;100.00;102351.22;5021832;28;47253;-81
2022/07/09 05:24:37;;;;;;;;;8.67;8.00;;;;;26.12;100.00;102332.38;5021458;28;46023;-82
2022/07/09 05:27:03;;;;;;;;;9.33;8.00;;;;;26.36;100.00;102348.78;5017569;28;45933;-81
2022/07/09 05:29:29;;;;;;;;;6.67;5.67;;;;;26.76;100.00;102353.66;5024729;28;45463;-80
2022/07/09 05:31:57;;;;;;;;;8.67;8.67;;;;;27.17;100.00;102350.03;5019176;28;46246;-81
2022/07/09 05:34:23;;;;;;;;;13.33;9.33;;;;;28.20;100.00;102349.78;5018724;28;46208;-78
2022/07/09 05:36:54;;;;;;;;;9.00;7.67;;;;;29.28;93.65;102334.06;5013757;28;45904;-87
2022/07/09 05:39:20;;;;;;;;;8.00;6.33;;;;;29.65;86.37;102335.38;5013089;28;46003;-83
2022/07/09 05:41:46;;;;;;;;;6.67;6.33;;;;;29.69;85.33;102348.63;5024704;28;45884;-82
2022/07/09 05:44:11;;;;;;;;;9.00;9.00;;;;;30.66;80.02;102344.81;5010986;28;45549;-82
2022/07/09 05:46:37;;;;;;;;;6.00;6.00;;;;;31.67;71.39;102332.03;5026524;28;45197;-82
2022/07/09 05:49:03;;;;;;;;;7.33;6.00;;;;;32.77;63.45;102343.53;5030495;28;45646;-81
2022/07/09 05:51:29;;;;;;;;;11.33;9.33;;;;;33.35;57.00;102338.91;5026415;28;45872;-79
2022/07/09 05:53:54;;;;;;;;;9.00;9.00;;;;;34.14;53.33;102337.22;5008228;28;45804;-77
2022/07/09 05:56:51;;;;;;;;;9.33;8.67;;;;;35.27;49.86;102344.97;5033979;28;45914;-87
2022/07/09 05:59:30;;;;;;;;;7.67;6.67;;;;;36.25;44.44;102347.00;4999191;28;46057;-90
2022/07/09 06:02:02;;;;;;;;;5.33;5.33;;;;;37.15;40.97;102341.03;5007483;28;48022;-83
2022/07/09 06:04:36;;;;;;;;;8.00;8.00;;;;;38.00;38.49;102336.59;5007491;28;45579;-84
2022/07/09 06:07:07;;;;;;;;;5.67;5.67;;;;;38.86;35.05;102329.81;5010490;28;46287;-81
2022/07/09 06:10:27;;;;;;;;;6.67;6.67;;;;;39.74;34.65;102343.25;5032857;28;45731;-90
2022/07/09 06:13:08;;;;;;;;;6.67;5.33;;;;;40.48;31.57;102295.72;5025304;28;45490;-91
2022/07/09 06:15:35;;;;;;;;;7.33;6.33;;;;;41.37;29.77;102344.75;5048207;23;45598;-70
2022/07/09 06:18:01;;;;;;;;;6.00;5.33;;;;;42.07;28.38;102348.34;5021001;28;45710;-71
2022/07/09 06:20:27;;;;;;;;;8.67;8.67;;;;;42.92;27.43;102344.16;5019451;28;45383;-70
2022/07/09 06:22:52;;;;;;;;;4.33;4.33;;;;;43.34;25.88;102343.78;5024095;28;46561;-70
2022/07/09 06:25:18;;;;;;;;;4.33;4.33;;;;;43.79;25.23;102345.81;5022231;28;46100;-71
2022/07/09 06:27:43;;;;;;;;;3.33;3.33;;;;;44.23;24.85;102342.03;5016991;28;45480;-71
2022/07/09 06:30:09;;;;;;;;;3.67;3.67;;;;;44.61;24.14;102336.78;5004072;28;45652;-72
2022/07/09 06:32:35;;;;;;;;;4.67;4.33;;;;;44.77;23.96;102336.47;5025864;28;46175;-69
2022/07/09 06:35:01;;;;;;;;;5.00;5.00;;;;;44.69;23.36;102329.84;5021096;28;45722;-68
2022/07/09 06:37:26;;;;;;;;;5.00;5.00;;;;;44.78;23.47;102344.75;5022505;28;45550;-70
2022/07/09 06:39:55;;;;;;;;;5.67;5.67;;;;;45.31;22.57;102342.38;5020191;28;45710;-70
2022/07/09 06:42:20;;;;;;;;;5.33;5.33;;;;;45.59;21.80;102340.72;5021529;28;45615;-70
2022/07/09 06:44:46;;;;;;;;;4.00;3.33;;;;;45.76;22.27;102336.97;5019189;28;45874;-70
2022/07/09 06:47:11;;;;;;;;;4.33;4.33;;;;;46.18;21.56;102331.53;5027045;28;45747;-69
2022/07/09 06:49:37;;;;;;;;;3.33;3.33;;;;;46.54;21.45;102336.38;5018816;28;45944;-69
2022/07/09 06:52:03;;;;;;;;;4.67;4.67;;;;;46.63;21.03;102333.88;5022988;28;45524;-69
2022/07/09 06:54:29;;;;;;;;;7.00;7.00;;;;;46.74;20.23;102339.59;5015823;28;45501;-70
2022/07/09 06:56:56;;;;;;;;;9.00;8.00;;;;;46.77;20.60;102330.03;5016708;28;45576;-69
2022/07/09 06:59:22;;;;;;;;;6.67;6.00;;;;;47.29;20.20;102338.00;5020873;28;45737;-71
2022/07/09 07:01:48;;;;;;;;;4.67;4.67;;;;;47.72;20.28;102335.56;5018286;28;45932;-71
2022/07/09 07:04:14;;;;;;;;;5.67;5.67;;;;;48.30;19.19;102329.13;5010201;28;45555;-70
2022/07/09 07:06:43;;;;;;;;;4.33;4.33;;;;;48.75;19.09;102331.84;5018683;28;46011;-70
2022/07/09 07:09:09;;;;;;;;;5.00;5.00;;;;;48.94;18.22;102330.34;5026475;28;45741;-72
2022/07/09 07:11:35;;;;;;;;;5.00;5.00;;;;;49.08;18.41;102332.19;5019125;28;45786;-71
2022/07/09 07:14:00;;;;;;;;;4.33;4.33;;;;;49.36;18.08;102329.25;5016732;28;45349;-71
2022/07/09 07:16:26;;;;;;;;;4.33;4.33;;;;;49.71;18.06;102332.81;5012288;28;45514;-74
2022/07/09 07:18:52;;;;;;;;;4.00;4.00;;;;;49.85;17.69;102320.84;5009606;28;45978;-71
2022/07/09 07:21:17;;;;;;;;;4.33;4.33;;;;;50.08;17.30;102331.69;5020626;28;46465;-73
2022/07/09 07:23:43;;;;;;;;;5.67;5.00;;;;;50.18;17.30;102323.97;5014418;28;45788;-74
2022/07/09 07:26:08;;;;;;;;;6.33;6.33;;;;;50.61;17.14;102320.13;5012732;28;45950;-73
2022/07/09 07:28:34;;;;;;;;;6.33;5.00;;;;;50.91;16.99;102320.28;5026738;28;45817;-72
2022/07/09 07:30:59;;;;;;;;;3.00;3.00;;;;;51.16;16.43;102326.34;5026640;28;46499;-72
2022/07/09 07:33:25;;;;;;;;;3.00;3.00;;;;;51.38;16.59;102323.72;5027301;28;45867;-72
2022/07/09 07:35:50;;;;;;;;;3.00;3.00;;;;;51.75;16.11;102331.53;5025122;28;46738;-72
2022/07/09 07:38:16;;;;;;;;;4.33;4.33;;;;;52.05;15.31;102328.13;5015730;28;45597;-72
2022/07/09 07:40:42;;;;;;;;;3.33;3.33;;;;;52.33;15.22;102331.53;5018576;28;47683;-72
2022/07/09 07:43:10;;;;;;;;;4.00;4.00;;;;;52.44;15.07;102325.31;5016078;28;45573;-73
2022/07/09 07:45:36;;;;;;;;;5.00;3.33;;;;;52.56;15.27;102329.56;5019099;28;45781;-71
2022/07/09 07:48:01;;;;;;;;;4.00;4.00;;;;;52.63;14.56;102326.41;5016568;28;45652;-72
2022/07/09 07:50:26;;;;;;;;;6.00;4.00;;;;;52.36;14.79;102324.72;5019867;28;46544;-73
2022/07/09 07:52:52;;;;;;;;;4.00;4.00;;;;;52.35;15.26;102328.94;5011156;28;45659;-71
2022/07/09 07:55:17;;;;;;;;;5.00;5.00;;;;;52.49;14.77;102326.84;5012805;28;45782;-72
2022/07/09 07:57:43;;;;;;;;;4.00;4.00;;;;;52.71;14.66;102324.91;5012927;28;46124;-73
2022/07/09 08:00:09;;;;;;;;;4.67;4.67;;;;;52.76;14.89;102318.47;5027505;28;46440;-72
2022/07/09 08:02:34;;;;;;;;;3.33;3.33;;;;;52.93;14.68;102315.41;5013784;28;45500;-73
2022/07/09 08:05:01;;;;;;;;;4.33;4.33;;;;;53.07;14.34;102312.00;5016370;28;45570;-73
2022/07/09 08:07:26;;;;;;;;;5.33;4.67;;;;;53.34;14.58;102316.53;5011522;28;45512;-72
2022/07/09 08:09:52;;;;;;;;;2.33;2.33;;;;;53.68;13.99;102314.09;5012410;28;45810;-71
2022/07/09 08:12:18;;;;;;;;;5.00;5.00;;;;;53.74;13.96;102315.13;5013152;28;45413;-74
2022/07/09 08:14:43;;;;;;;;;4.00;4.00;;;;;54.04;14.18;102313.59;5011002;28;45637;-69
2022/07/09 08:17:09;;;;;;;;;5.00;2.00;;;;;54.34;13.41;102312.00;5014407;28;45684;-74
2022/07/09 08:19:34;;;;;;;;;3.67;3.67;;;;;54.81;13.70;102307.16;5015095;28;45881;-73
2022/07/09 08:22:00;;;;;;;;;4.00;4.00;;;;;55.26;12.84;102298.94;5013903;28;45362;-71
2022/07/09 08:24:26;;;;;;;;;4.00;4.00;;;;;55.13;12.79;102293.22;5012593;28;45727;-72
2022/07/09 08:26:52;;;;;;;;;4.33;4.33;;;;;55.34;12.53;102299.50;5011580;28;46129;-73
2022/07/09 08:29:17;;;;;;;;;4.67;4.00;;;;;55.37;12.59;102293.44;5014947;28;45919;-72
2022/07/09 08:31:43;;;;;;;;;1.67;1.67;;;;;55.61;12.62;102301.59;5018021;28;45374;-71
2022/07/09 08:34:08;;;;;;;;;4.67;4.67;;;;;56.02;12.75;102293.41;5012731;28;46623;-72
2022/07/09 08:36:34;;;;;;;;;3.00;3.00;;;;;56.10;12.82;102290.13;5019568;28;45913;-72
2022/07/09 08:38:59;;;;;;;;;2.33;2.00;;;;;56.22;12.50;102292.03;5016004;28;46234;-72
2022/07/09 08:41:25;;;;;;;;;4.00;2.67;;;;;56.20;12.41;102295.47;4998996;28;45394;-73
2022/07/09 08:43:51;;;;;;;;;1.33;1.33;;;;;56.16;11.78;102291.91;5014704;28;45709;-74
2022/07/09 08:46:17;;;;;;;;;5.67;5.33;;;;;56.08;12.53;102291.44;5013649;28;46500;-73
2022/07/09 08:48:44;;;;;;;;;2.00;1.67;;;;;56.03;12.16;102291.31;5014988;28;46097;-73
2022/07/09 08:51:10;;;;;;;;;3.33;2.67;;;;;56.38;12.06;102287.94;5014696;28;45537;-73
2022/07/09 08:53:41;;;;;;;;;3.67;2.67;;;;;56.55;12.09;102283.28;4997223;28;45392;-77
2022/07/09 08:56:08;;;;;;;;;2.00;1.33;;;;;56.75;12.23;102276.78;5028024;28;45563;-74
2022/07/09 08:58:33;;;;;;;;;1.33;1.33;;;;;57.06;11.49;102268.91;5015870;28;45419;-72
2022/07/09 09:01:00;;;;;;;;;1.67;1.67;;;;;57.36;11.75;102266.06;5023316;28;45630;-73
2022/07/09 09:03:26;;;;;;;;;4.33;2.00;;;;;57.54;11.17;102260.06;5000814;28;45708;-73
2022/07/09 09:06:05;;;;;;;;;3.67;3.67;;;;;57.72;11.96;102261.16;5016186;28;45419;-73
2022/07/09 09:08:35;;;;;;;;;3.00;3.00;;;;;58.10;11.57;102265.38;5002064;28;47265;-72
2022/07/09 09:11:05;;;;;;;;;4.00;3.00;;;;;58.22;11.49;102260.50;5014060;28;45394;-74
2022/07/09 09:13:33;;;;;;;;;6.67;4.00;;;;;58.76;11.08;102251.41;5004409;28;45481;-72
2022/07/09 09:16:06;;;;;;;;;3.67;3.67;;;;;59.31;10.96;102262.34;5012993;28;45760;-74
2022/07/09 09:18:35;;;;;;;;;6.00;4.00;;;;;59.76;9.99;102256.16;5023760;28;45629;-73
2022/07/09 09:21:03;;;;;;;;;4.00;4.00;;;;;59.98;10.47;102255.56;5019196;28;45397;-71
2022/07/09 09:23:28;;;;;;;;;3.00;3.00;;;;;59.98;10.49;102258.53;5022070;28;45660;-72
2022/07/09 09:25:53;;;;;;;;;3.00;3.00;;;;;59.84;9.66;102259.44;5029399;28;45798;-72
2022/07/09 09:28:19;;;;;;;;;6.33;4.00;;;;;59.96;10.58;102257.44;5018573;28;46314;-73
2022/07/09 09:30:44;;;;;;;;;3.33;3.33;;;;;60.22;9.88;102251.44;5013801;28;45726;-73
2022/07/09 09:33:15;;;;;;;;;8.33;7.33;;;;;60.15;9.72;102248.97;5013999;28;45374;-73
2022/07/09 09:35:44;;;;;;;;;4.33;4.00;;;;;60.29;10.59;102250.16;5023037;28;45303;-74
2022/07/09 09:38:10;;;;;;;;;3.00;3.00;;;;;60.58;10.05;102260.88;5018659;28;46374;-73
2022/07/09 09:40:37;;;;;;;;;1.33;1.33;;;;;60.66;9.64;102264.97;5022215;28;45407;-71
2022/07/09 09:43:03;;;;;;;;;4.00;3.00;;;;;60.27;9.24;102256.63;5013753;28;45385;-71
2022/07/09 09:45:29;;;;;;;;;2.67;1.00;;;;;60.18;9.42;102259.78;5013261;28;45689;-73
2022/07/09 09:47:54;;;;;;;;;1.67;0.67;;;;;59.61;10.25;102253.28;5013142;28;46575;-72
2022/07/09 09:50:22;;;;;;;;;1.00;1.00;;;;;59.07;9.53;102244.03;5012619;28;45327;-72
2022/07/09 09:52:50;;;;;;;;;1.00;1.00;;;;;58.30;9.87;102246.91;5013585;28;45613;-71
2022/07/09 09:55:18;;;;;;;;;0.67;0.67;;;;;56.99;10.68;102248.69;5015864;28;45453;-72
2022/07/09 09:57:43;;;;;;;;;3.00;3.00;;;;;56.37;11.38;102251.75;5012690;28;46520;-72
2022/07/09 10:00:11;;;;;;;;;2.00;0.67;;;;;55.83;11.72;102253.50;5026382;28;45720;-72
2022/07/09 10:02:42;;;;;;;;;1.33;1.00;;;;;55.36;11.81;102258.63;5021969;28;45450;-73
2022/07/09 10:05:08;;;;;;;;;2.00;2.00;;;;;55.51;12.12;102250.75;5019258;28;47144;-74
2022/07/09 10:07:33;;;;;;;;;2.67;1.67;;;;;55.79;11.13;102246.97;5018373;28;46840;-73
2022/07/09 10:09:59;;;;;;;;;0.67;0.67;;;;;55.56;11.45;102252.22;5018863;28;45343;-72
2022/07/09 10:12:29;;;;;;;;;1.33;1.33;;;;;54.93;11.48;102245.78;5012857;28;45628;-73
2022/07/09 10:14:55;;;;;;;;;2.00;2.00;;;;;54.57;11.49;102253.19;5012043;28;45578;-72
2022/07/09 10:17:20;;;;;;;;;1.00;1.00;;;;;54.06;12.33;102239.69;5013062;28;46183;-73
2022/07/09 10:19:56;;;;;;;;;2.00;2.00;;;;;52.75;12.89;102242.75;5012404;28;45971;-73
2022/07/09 10:22:22;;;;;;;;;2.00;2.00;;;;;51.77;13.80;102232.41;5016229;28;45380;-72
2022/07/09 10:24:51;;;;;;;;;2.00;2.00;;;;;51.55;14.00;102239.69;5023728;28;45341;-73
2022/07/09 10:27:17;;;;;;;;;2.00;2.00;;;;;51.66;13.74;102247.34;5012603;28;45446;-73
2022/07/09 10:29:59;;;;;;;;;3.00;3.00;;;;;52.17;13.85;102234.97;5012253;28;45336;-73
2022/07/09 10:32:26;;;;;;;;;2.00;2.00;;;;;52.74;13.32;102238.16;5012794;28;45656;-72
2022/07/09 10:35:00;;;;;;;;;2.67;2.67;;;;;52.93;13.55;102237.06;5027254;28;45432;-73
2022/07/09 10:37:40;;;;;;;;;2.00;2.00;;;;;52.89;13.32;102235.56;5019867;28;45550;-75
2022/07/09 10:40:17;;;;;;;;;3.00;2.00;;;;;52.67;13.28;102229.63;5012882;28;45409;-74
2022/07/09 10:42:45;;;;;;;;;3.00;3.00;;;;;51.90;13.35;102227.41;5019269;28;45734;-75
2022/07/09 10:45:35;;;;;;;;;1.67;1.67;;;;;51.11;13.90;102229.59;5024180;28;45382;-72
2022/07/09 10:48:03;;;;;;;;;3.00;2.33;;;;;50.77;13.68;102213.34;5023714;28;45812;-72
2022/07/09 10:50:31;;;;;;;;;2.67;2.67;;;;;50.78;13.90;102215.00;5022327;28;45295;-73
2022/07/09 10:52:57;;;;;;;;;4.67;3.00;;;;;51.18;14.45;102214.81;5023251;28;45590;-74
2022/07/09 10:55:25;;;;;;;;;4.00;3.00;;;;;51.54;13.72;102205.03;5028078;28;45594;-73
2022/07/09 10:57:52;;;;;;;;;2.00;2.00;;;;;51.44;13.37;102201.13;5016994;28;46161;-72
2022/07/09 11:00:21;;;;;;;;;5.00;3.67;;;;;51.47;13.68;102202.31;5026141;28;45423;-74
2022/07/09 11:03:06;;;;;;;;;3.00;3.00;;;;;49.89;15.09;102193.28;5005264;28;45406;-73
2022/07/09 11:05:33;;;;;;;;;4.00;4.00;;;;;48.42;15.47;102190.91;5014355;28;45650;-73
2022/07/09 11:08:02;;;;;;;;;3.00;3.00;;;;;48.46;15.73;102180.06;5017077;28;46265;-73
2022/07/09 11:10:29;;;;;;;;;3.00;3.00;;;;;47.29;16.12;102189.81;5015425;28;45477;-75
2022/07/09 11:12:58;;;;;;;;;3.00;3.00;;;;;45.31;17.21;102191.72;5019521;28;45647;-75
2022/07/09 11:15:26;;;;;;;;;2.00;2.00;;;;;44.38;17.74;102193.31;5012562;28;45834;-74
2022/07/09 11:18:10;;;;;;;;;3.00;3.00;;;;;44.14;18.06;102194.88;5022623;28;45531;-74
2022/07/09 11:20:41;;;;;;;;;4.00;3.67;;;;;43.99;18.27;102191.09;5021683;28;45495;-74